Eurocargo Valencia — IBGZ — position and weather

sailwx.info

Track history (hours):
 
Tides and Currents Weather Stations Pressure Air Temp Water Temp Dewpoint Dewpoint Depression Visibility Wind Speed Wind Dir Waves Ship Positions

Eurocargo Valencia

Last reported at 2014-Jul-24 07:33 UTC. Time now 2014-Jul-24 08:29 UTC.
Position N 40°42' E 029°07'.

Length 196 m; draft 6 m.

Type: Cargo ship. MMSI: 247579000.

Date/timePositionNaut miles runAvg speedWind from/ knotsBaromVisibWave heightAir tempDewpointWater temp
2014-Jul-24 07:33N 40°42' E 029°07'1413.9
2014-Jul-24 06:33N 40°45' E 029°26'13 0.8
2014-Jul-23 13:05N 40°44' E 029°43'1012.6
2014-Jul-23 12:19N 40°45' E 029°30'810.8
2014-Jul-23 11:33N 40°43' E 029°20'1515.4
2014-Jul-23 10:33N 40°43' E 028°59'1715.3
2014-Jul-23 09:28N 40°43' E 028°37'6214.3
2014-Jul-23 05:09N 40°36' E 027°16'2314.2
2014-Jul-23 03:33N 40°27' E 026°49'1312.8
2014-Jul-23 02:34N 40°19' E 026°36'3610.9
2014-Jul-22 23:16N 39°57' E 025°59'1013.9
2014-Jul-22 22:32N 39°48' E 025°52'3215.4
2014-Jul-22 20:28N 39°17' E 025°45'1313.4
2014-Jul-22 19:31N 39°05' E 025°52'25 1.5
2014-Jul-22 02:23N 38°40' E 025°52'2614.3
2014-Jul-22 00:33N 38°22' E 025°27'6114.1
2014-Jul-21 20:14N 37°40' E 024°32'1014.6
2014-Jul-21 19:33N 37°32' E 024°24'2114.6
2014-Jul-21 18:08N 37°16' E 024°08'1014.3
2014-Jul-21 17:25N 37°08' E 024°00'1314.5
2014-Jul-21 16:30N 36°57' E 023°49'1514.9
2014-Jul-21 15:30N 36°46' E 023°38'2114.7
2014-Jul-21 14:06N 36°30' E 023°22'  
2014-Jul-15 14:28N 37°27' E 024°05'3015.4
2014-Jul-15 12:31N 37°51' E 024°28'6415.1
2014-Jul-15 08:17N 38°47' E 025°08'1115.2
2014-Jul-15 07:33N 38°57' E 025°15'3014.9
2014-Jul-15 05:32N 39°24' E 025°32'2014.8
2014-Jul-15 04:12N 39°42' E 025°41'1315.5
2014-Jul-15 03:22N 39°54' E 025°49'3114.5
2014-Jul-15 01:16N 40°10' E 026°23'2813.5
2014-Jul-14 23:13N 40°28' E 026°50'  
Track history (hours):
 
Tides and Currents Weather Stations Pressure Air Temp Water Temp Dewpoint Dewpoint Depression Visibility Wind Speed Wind Dir Waves Ship Positions

Eurocargo Valencia

Last reported at 2014-Jul-24 07:33 UTC. Time now 2014-Jul-24 08:29 UTC.
Position N 40°42' E 029°07'.

Length 196 m; draft 6 m.

Type: Cargo ship. MMSI: 247579000.

Date/timePositionNaut miles runAvg speedWind from/ knotsBaromVisibWave heightAir tempDewpointWater temp
2014-Jul-24 07:33N 40°42' E 029°07'1413.9
2014-Jul-24 06:33N 40°45' E 029°26'13 0.8
2014-Jul-23 13:05N 40°44' E 029°43'1012.6
2014-Jul-23 12:19N 40°45' E 029°30'810.8
2014-Jul-23 11:33N 40°43' E 029°20'1515.4
2014-Jul-23 10:33N 40°43' E 028°59'1715.3
2014-Jul-23 09:28N 40°43' E 028°37'6214.3
2014-Jul-23 05:09N 40°36' E 027°16'2314.2
2014-Jul-23 03:33N 40°27' E 026°49'1312.8
2014-Jul-23 02:34N 40°19' E 026°36'3610.9
2014-Jul-22 23:16N 39°57' E 025°59'1013.9
2014-Jul-22 22:32N 39°48' E 025°52'3215.4
2014-Jul-22 20:28N 39°17' E 025°45'1313.4
2014-Jul-22 19:31N 39°05' E 025°52'25 1.5
2014-Jul-22 02:23N 38°40' E 025°52'2614.3
2014-Jul-22 00:33N 38°22' E 025°27'6114.1
2014-Jul-21 20:14N 37°40' E 024°32'1014.6
2014-Jul-21 19:33N 37°32' E 024°24'2114.6
2014-Jul-21 18:08N 37°16' E 024°08'1014.3
2014-Jul-21 17:25N 37°08' E 024°00'1314.5
2014-Jul-21 16:30N 36°57' E 023°49'1514.9
2014-Jul-21 15:30N 36°46' E 023°38'2114.7
2014-Jul-21 14:06N 36°30' E 023°22'  
2014-Jul-15 14:28N 37°27' E 024°05'3015.4
2014-Jul-15 12:31N 37°51' E 024°28'6415.1
2014-Jul-15 08:17N 38°47' E 025°08'1115.2
2014-Jul-15 07:33N 38°57' E 025°15'3014.9
2014-Jul-15 05:32N 39°24' E 025°32'2014.8
2014-Jul-15 04:12N 39°42' E 025°41'1315.5
2014-Jul-15 03:22N 39°54' E 025°49'3114.5
2014-Jul-15 01:16N 40°10' E 026°23'2813.5
2014-Jul-14 23:13N 40°28' E 026°50'  

Dump ship's entire track history